createdAt,value
2019-03-15T00:02:15.952Z,67.15
2019-03-15T00:04:44.344Z,67.12
2019-03-15T00:07:12.740Z,67.01
2019-03-15T00:09:41.165Z,66.93
2019-03-15T00:12:09.554Z,66.82
2019-03-15T00:14:38.031Z,66.71
2019-03-15T00:19:40.682Z,66.22
2019-03-15T00:22:09.128Z,66.10
2019-03-15T00:24:37.520Z,65.99
2019-03-15T00:27:05.912Z,65.85
2019-03-15T00:32:08.094Z,65.54
2019-03-15T00:34:36.490Z,65.44
2019-03-15T00:37:04.942Z,65.37
2019-03-15T00:39:33.331Z,65.35
2019-03-15T00:42:01.729Z,65.33
2019-03-15T00:47:44.491Z,65.15
2019-03-15T00:52:47.436Z,64.95
2019-03-15T00:57:49.829Z,64.73
2019-03-15T01:00:58.166Z,64.65
2019-03-15T01:03:26.558Z,64.59
2019-03-15T01:05:54.984Z,64.52
2019-03-15T01:08:23.494Z,64.34
2019-03-15T01:11:11.130Z,64.40
2019-03-15T01:13:39.539Z,64.36
2019-03-15T01:16:08.937Z,64.55
2019-03-15T01:18:38.038Z,64.68
2019-03-15T01:21:06.472Z,64.96
2019-03-15T01:23:34.858Z,65.26
2019-03-15T01:26:03.248Z,65.62
2019-03-15T01:28:31.710Z,65.97
2019-03-15T01:31:00.094Z,66.35
2019-03-15T01:33:28.483Z,66.73
2019-03-15T01:35:56.893Z,67.16
2019-03-15T01:38:25.325Z,67.34
2019-03-15T01:40:53.680Z,67.48
2019-03-15T01:43:22.136Z,67.66
2019-03-15T01:45:50.520Z,68.03
2019-03-15T01:48:38.308Z,68.27
2019-03-15T01:51:06.703Z,68.50
2019-03-15T01:53:35.090Z,68.66
2019-03-15T01:56:22.732Z,69.01
2019-03-15T01:58:51.119Z,69.27
2019-03-15T02:01:19.520Z,69.49
2019-03-15T02:03:47.984Z,69.82
2019-03-15T02:06:17.477Z,70.17
2019-03-15T02:08:46.507Z,70.50
2019-03-15T02:11:14.909Z,70.89
2019-03-15T02:13:43.306Z,70.97
2019-03-15T02:19:05.165Z,71.19
2019-03-15T02:21:33.559Z,71.04
2019-03-15T02:24:01.988Z,70.81
2019-03-15T02:26:32.562Z,70.86
2019-03-15T02:29:00.955Z,70.91
2019-03-15T02:34:15.863Z,71.47
2019-03-15T02:36:44.285Z,71.70
2019-03-15T02:39:12.676Z,71.84
2019-03-15T02:42:00.304Z,71.77
2019-03-15T02:44:28.690Z,71.87
2019-03-15T02:46:57.087Z,71.82
2019-03-15T02:51:59.821Z,71.82
2019-03-15T02:57:22.918Z,71.69
2019-03-15T02:59:51.309Z,71.62
2019-03-15T03:02:19.748Z,71.56
2019-03-15T03:04:48.139Z,71.40
2019-03-15T03:07:16.541Z,71.24
2019-03-15T03:09:44.938Z,70.98
2019-03-15T03:12:13.372Z,70.79
2019-03-15T03:14:41.756Z,70.79
2019-03-15T03:17:10.144Z,70.69
2019-03-15T03:19:38.561Z,70.46
2019-03-15T03:22:06.951Z,70.24
2019-03-15T03:24:54.788Z,70.18
2019-03-15T03:27:23.187Z,70.03
2019-03-15T03:29:51.583Z,69.83
2019-03-15T03:35:09.421Z,69.57
2019-03-15T03:37:24.205Z,69.40
2019-03-15T03:39:53.999Z,69.25
2019-03-15T03:42:22.394Z,69.13
2019-03-15T03:44:50.803Z,68.89
2019-03-15T03:47:19.263Z,68.71
2019-03-15T03:49:47.657Z,68.64
2019-03-15T03:54:49.679Z,68.53
2019-03-15T03:59:52.158Z,68.40
2019-03-15T04:05:13.522Z,68.18
2019-03-15T04:13:10.162Z,67.83
2019-03-15T04:15:38.663Z,67.80
2019-03-15T04:20:42.473Z,67.73
2019-03-15T04:25:46.207Z,67.64
2019-03-15T04:30:49.222Z,67.56
2019-03-15T04:33:17.648Z,67.63
2019-03-15T04:35:46.050Z,67.55
2019-03-15T04:38:14.435Z,67.40
2019-03-15T04:43:16.506Z,67.17
2019-03-15T04:48:18.554Z,67.13
2019-03-15T04:50:46.966Z,67.11
2019-03-15T04:53:15.366Z,67.10
2019-03-15T04:55:43.788Z,67.00
2019-03-15T04:58:12.210Z,66.82
2019-03-15T05:00:59.921Z,66.71
2019-03-15T05:03:28.370Z,66.67
2019-03-15T05:06:03.009Z,66.51
2019-03-15T05:08:26.902Z,66.29
2019-03-15T05:13:29.211Z,66.03
2019-03-15T05:15:57.597Z,65.92
2019-03-15T05:18:26.055Z,65.81
2019-03-15T05:20:54.450Z,65.64
2019-03-15T05:23:22.859Z,65.44
2019-03-15T05:28:25.037Z,65.22
2019-03-15T05:30:53.446Z,65.00
2019-03-15T05:33:21.839Z,64.67
2019-03-15T05:38:44.888Z,64.42
2019-03-15T05:41:13.259Z,64.41
2019-03-15T05:43:41.713Z,64.31
2019-03-15T05:49:03.414Z,64.15
2019-03-15T05:51:31.860Z,64.03
2019-03-15T05:54:00.246Z,63.86
2019-03-15T05:56:28.636Z,63.67
2019-03-15T06:01:30.779Z,63.51
2019-03-15T06:03:59.170Z,63.39
2019-03-15T06:09:01.214Z,63.20
2019-03-15T06:11:29.596Z,63.03
2019-03-15T06:16:31.792Z,63.18
2019-03-15T06:21:34.543Z,63.10
2019-03-15T06:24:02.960Z,62.97
2019-03-15T06:26:31.354Z,62.94
2019-03-15T06:29:01.697Z,63.06
2019-03-15T06:31:29.898Z,63.29
2019-03-15T06:34:17.550Z,63.48
2019-03-15T06:36:45.983Z,63.51
2019-03-15T06:39:14.374Z,63.51
2019-03-15T06:41:42.764Z,63.86
2019-03-15T06:44:11.182Z,63.97
2019-03-15T06:46:39.580Z,64.10
2019-03-15T06:49:07.976Z,64.05
2019-03-15T06:51:36.402Z,64.22
2019-03-15T06:54:11.257Z,64.29
2019-03-15T06:56:35.071Z,64.32
2019-03-15T06:59:03.526Z,64.30
2019-03-15T07:01:31.921Z,64.32
2019-03-15T07:04:00.314Z,64.38
2019-03-15T07:06:28.738Z,64.51
2019-03-15T07:08:57.139Z,64.40
2019-03-15T07:11:25.528Z,64.39
2019-03-15T07:16:27.488Z,64.59
2019-03-15T07:21:29.410Z,65.02
2019-03-15T07:23:58.097Z,65.28
2019-03-15T07:26:27.957Z,65.22
2019-03-15T07:28:56.336Z,65.06
2019-03-15T07:31:27.511Z,64.95
2019-03-15T07:36:30.256Z,65.01
2019-03-15T07:38:58.747Z,65.01
2019-03-15T07:41:27.140Z,65.10
2019-03-15T07:43:55.550Z,65.11
2019-03-15T07:46:23.994Z,65.21
2019-03-15T07:48:52.400Z,65.27
2019-03-15T07:51:20.792Z,65.34
2019-03-15T07:53:49.245Z,65.38
2019-03-15T07:56:17.607Z,65.46
2019-03-15T07:58:46.008Z,65.58
2019-03-15T08:01:14.421Z,65.64
2019-03-15T08:03:42.812Z,65.71
2019-03-15T08:06:11.216Z,65.62
2019-03-15T08:08:39.767Z,65.63
2019-03-15T08:11:09.740Z,65.60
2019-03-15T08:13:38.134Z,65.61
2019-03-15T08:16:06.583Z,65.67
2019-03-15T08:18:34.976Z,65.81
2019-03-15T08:21:03.374Z,66.02
2019-03-15T08:23:31.800Z,66.31
2019-03-15T08:26:00.268Z,66.76
2019-03-15T08:28:48.058Z,67.41
2019-03-15T08:31:16.472Z,68.04
2019-03-15T08:33:44.859Z,68.46
2019-03-15T08:38:48.050Z,69.24
2019-03-15T08:41:17.164Z,69.79
2019-03-15T08:43:46.107Z,69.91
2019-03-15T08:46:15.692Z,70.01
2019-03-15T08:48:44.142Z,70.09
2019-03-15T08:51:12.541Z,70.30
2019-03-15T08:53:40.938Z,70.43
2019-03-15T08:58:43.732Z,70.94
2019-03-15T09:03:46.103Z,71.08
2019-03-15T09:06:14.522Z,71.21
2019-03-15T09:08:42.916Z,71.34
2019-03-15T09:11:11.307Z,71.56
2019-03-15T09:13:39.749Z,71.68
2019-03-15T09:16:08.133Z,71.62
2019-03-15T09:18:36.563Z,71.82
2019-03-15T09:21:24.238Z,71.84
2019-03-15T09:23:52.626Z,71.96
2019-03-15T09:26:40.372Z,72.12
2019-03-15T09:29:08.764Z,72.37
2019-03-15T09:31:47.684Z,72.61
2019-03-15T09:34:07.305Z,72.95
2019-03-15T09:36:54.907Z,73.02
2019-03-15T09:39:23.301Z,72.94
2019-03-15T09:41:51.696Z,72.93
2019-03-15T09:44:32.587Z,72.90
2019-03-15T09:47:02.561Z,72.92
2019-03-15T09:49:31.151Z,73.04
2019-03-15T09:54:33.066Z,73.30
2019-03-15T09:59:35.958Z,73.31
2019-03-15T10:05:10.235Z,73.46
2019-03-15T10:07:38.313Z,73.52
2019-03-15T10:10:12.433Z,73.42
2019-03-15T10:15:26.226Z,73.31
2019-03-15T10:20:27.282Z,73.20
2019-03-15T10:25:30.090Z,73.24
2019-03-15T10:27:58.522Z,73.38
2019-03-15T10:30:26.916Z,73.49
2019-03-15T10:32:55.311Z,73.41
2019-03-15T10:35:23.730Z,73.43
2019-03-15T10:37:52.131Z,73.59
2019-03-15T10:41:01.354Z,73.67
2019-03-15T10:43:30.574Z,73.71
2019-03-15T10:45:58.975Z,73.54
2019-03-15T10:48:27.395Z,73.44
2019-03-15T10:50:55.856Z,73.55
2019-03-15T10:53:24.245Z,73.53
2019-03-15T10:56:12.042Z,73.57
2019-03-15T10:58:40.437Z,73.73
2019-03-15T11:01:08.824Z,73.75
2019-03-15T11:03:37.256Z,73.70
2019-03-15T11:06:05.639Z,73.60
2019-03-15T11:08:34.041Z,73.52
2019-03-15T11:11:02.473Z,73.65
2019-03-15T11:13:30.879Z,73.65
2019-03-15T11:15:59.274Z,73.70
2019-03-15T11:21:01.628Z,73.65
2019-03-15T11:26:13.093Z,73.74
2019-03-15T11:28:33.954Z,73.74
2019-03-15T11:31:02.341Z,73.91
2019-03-15T11:33:30.736Z,73.88
2019-03-15T11:38:32.902Z,74.05
2019-03-15T11:41:01.326Z,73.98
2019-03-15T11:43:29.710Z,74.04
2019-03-15T11:45:58.113Z,73.94
2019-03-15T11:51:00.250Z,73.95
2019-03-15T11:53:28.647Z,73.96
2019-03-15T11:55:57.078Z,73.91
2019-03-15T11:58:44.793Z,73.97
2019-03-15T12:03:52.913Z,73.93
2019-03-15T12:08:51.445Z,74.27
2019-03-15T12:11:19.848Z,74.29
2019-03-15T12:16:22.416Z,74.35
2019-03-15T12:18:50.811Z,74.58
2019-03-15T12:21:40.001Z,74.58
2019-03-15T12:24:08.392Z,74.67
2019-03-15T12:26:40.510Z,74.57
2019-03-15T12:29:06.919Z,74.77
2019-03-15T12:31:35.311Z,74.94
2019-03-15T12:39:44.696Z,75.19
2019-03-15T12:44:47.507Z,75.48
2019-03-15T12:50:49.439Z,75.64
2019-03-15T12:53:17.866Z,75.77
2019-03-15T12:55:46.272Z,75.61
2019-03-15T12:58:14.662Z,75.75
2019-03-15T13:00:43.096Z,75.75
2019-03-15T13:03:11.487Z,75.85
2019-03-15T13:05:39.890Z,75.84
2019-03-15T13:10:41.848Z,75.76
2019-03-15T13:15:44.631Z,75.67
2019-03-15T13:18:32.467Z,75.79
2019-03-15T13:21:00.861Z,75.72
2019-03-15T13:23:29.261Z,75.84
2019-03-15T13:28:32.326Z,75.89
2019-03-15T13:33:34.666Z,75.98
2019-03-15T13:36:22.326Z,75.92
2019-03-15T13:38:50.735Z,75.87
2019-03-15T13:41:19.111Z,75.83
2019-03-15T13:46:21.807Z,75.65
2019-03-15T13:48:50.433Z,75.69
2019-03-15T13:51:22.444Z,75.82
2019-03-15T13:53:49.225Z,75.84
2019-03-15T13:56:17.658Z,75.85
2019-03-15T13:58:56.740Z,75.72
2019-03-15T14:01:16.180Z,75.57
2019-03-15T14:03:44.667Z,75.54
2019-03-15T14:06:13.057Z,75.69
2019-03-15T14:08:41.465Z,75.56
2019-03-15T14:11:09.931Z,75.60
2019-03-15T14:13:38.316Z,75.36
2019-03-15T14:16:06.810Z,75.22
2019-03-15T14:21:09.064Z,75.20
2019-03-15T14:23:37.515Z,75.00
2019-03-15T14:26:25.237Z,74.93
2019-03-15T14:31:28.060Z,74.90
2019-03-15T14:33:56.484Z,74.71
2019-03-15T14:36:32.541Z,74.67
2019-03-15T14:41:34.707Z,74.63
2019-03-15T14:46:39.005Z,74.74
2019-03-15T14:49:07.473Z,74.74
2019-03-15T14:51:35.934Z,74.82
2019-03-15T14:54:23.734Z,74.78
2019-03-15T14:56:52.142Z,74.85
2019-03-15T14:59:20.545Z,74.96
2019-03-15T15:01:48.978Z,75.03
2019-03-15T15:04:17.376Z,75.06
2019-03-15T15:06:45.782Z,75.02
2019-03-15T15:11:48.254Z,75.27
2019-03-15T15:14:16.716Z,75.26
2019-03-15T15:16:45.103Z,75.35
2019-03-15T15:19:13.503Z,75.24
2019-03-15T15:21:41.961Z,75.10
2019-03-15T15:24:10.347Z,74.96
2019-03-15T15:26:38.739Z,74.82
2019-03-15T15:29:07.173Z,74.59
2019-03-15T15:31:35.563Z,74.48
2019-03-15T15:36:58.178Z,74.54
2019-03-15T15:39:26.578Z,74.58
2019-03-15T15:41:54.970Z,74.59
2019-03-15T15:44:23.404Z,74.35
2019-03-15T15:46:51.795Z,74.23
2019-03-15T15:49:20.195Z,74.06
2019-03-15T15:54:22.618Z,73.90
2019-03-15T15:59:25.324Z,73.83
2019-03-15T16:04:27.664Z,73.71
2019-03-15T16:06:56.091Z,73.62
2019-03-15T16:09:24.484Z,73.42
2019-03-15T16:11:52.892Z,73.22
2019-03-15T16:16:54.878Z,72.87
2019-03-15T16:19:23.338Z,72.90
2019-03-15T16:21:51.736Z,72.80
2019-03-15T16:24:20.143Z,72.77
2019-03-15T16:26:48.574Z,72.71
2019-03-15T16:29:16.979Z,72.56
2019-03-15T16:34:39.168Z,72.26
2019-03-15T16:37:07.586Z,72.26
2019-03-15T16:39:36.000Z,72.32
2019-03-15T16:42:23.732Z,72.27
2019-03-15T16:44:52.125Z,72.19
2019-03-15T16:47:20.526Z,72.10
2019-03-15T16:49:48.983Z,72.05
2019-03-15T16:52:17.380Z,72.01
2019-03-15T16:54:57.808Z,71.89
2019-03-15T16:57:26.207Z,71.75
2019-03-15T16:59:54.606Z,71.46
2019-03-15T17:02:23.034Z,71.23
2019-03-15T17:04:51.433Z,71.06
2019-03-15T17:07:19.842Z,70.85
2019-03-15T17:12:21.702Z,70.47
2019-03-15T17:14:50.135Z,70.28
2019-03-15T17:17:18.538Z,70.37
2019-03-15T17:19:46.928Z,70.29
2019-03-15T17:24:49.220Z,69.92
2019-03-15T17:27:17.618Z,69.94
2019-03-15T17:32:19.611Z,69.39
2019-03-15T17:34:48.033Z,69.12
2019-03-15T17:37:35.632Z,68.70
2019-03-15T17:40:43.978Z,68.29
2019-03-15T17:43:12.384Z,68.20
2019-03-15T17:45:40.799Z,68.10
2019-03-15T17:48:09.278Z,67.77
2019-03-15T17:50:37.676Z,67.79
2019-03-15T17:53:46.010Z,67.79
2019-03-15T17:56:27.086Z,67.31
2019-03-15T18:01:29.433Z,67.02
2019-03-15T18:03:57.881Z,66.99
2019-03-15T18:09:45.343Z,66.64
2019-03-15T18:12:13.746Z,66.49
2019-03-15T18:14:42.154Z,66.46
2019-03-15T18:17:29.893Z,66.36
2019-03-15T18:19:58.295Z,66.34
2019-03-15T18:22:26.689Z,66.59
2019-03-15T18:27:29.053Z,66.79
2019-03-15T18:29:57.476Z,66.92
2019-03-15T18:32:25.871Z,66.86
2019-03-15T18:34:54.291Z,66.80
2019-03-15T18:37:22.712Z,66.66
2019-03-15T18:39:51.136Z,66.66
2019-03-15T18:42:19.510Z,66.59
2019-03-15T18:44:47.948Z,66.43
2019-03-15T18:47:16.338Z,66.43
2019-03-15T18:49:44.900Z,66.14
2019-03-15T18:52:13.348Z,66.00
2019-03-15T18:54:41.745Z,66.03
2019-03-15T18:57:10.146Z,65.92
2019-03-15T18:59:40.318Z,65.77
2019-03-15T19:02:08.712Z,65.59
2019-03-15T19:05:17.137Z,65.21
2019-03-15T19:07:45.530Z,65.13
2019-03-15T19:10:53.879Z,64.89
2019-03-15T19:13:22.277Z,64.82
2019-03-15T19:15:50.679Z,64.74
2019-03-15T19:18:19.130Z,64.74
2019-03-15T19:20:47.614Z,64.26
2019-03-15T19:23:17.641Z,63.96
2019-03-15T19:28:20.133Z,63.84
2019-03-15T19:30:48.535Z,63.75
2019-03-15T19:33:17.017Z,63.66
2019-03-15T19:35:45.411Z,63.38
2019-03-15T19:38:14.978Z,63.26
2019-03-15T19:40:43.963Z,63.07
2019-03-15T19:43:12.357Z,62.93
2019-03-15T19:45:40.789Z,62.52
2019-03-15T19:50:43.869Z,62.69
2019-03-15T19:58:40.677Z,62.17
2019-03-15T20:03:44.195Z,61.97
2019-03-15T20:06:12.883Z,61.83
2019-03-15T20:08:41.281Z,61.71
2019-03-15T20:11:49.947Z,61.73
2019-03-15T20:14:18.345Z,61.65
2019-03-15T20:19:34.212Z,61.64
2019-03-15T20:22:02.614Z,61.36
2019-03-15T20:24:31.010Z,61.33
2019-03-15T20:27:18.639Z,61.27
2019-03-15T20:30:06.361Z,61.21
2019-03-15T20:35:09.248Z,61.29
2019-03-15T20:37:37.679Z,61.21
2019-03-15T20:40:25.417Z,60.80
2019-03-15T20:42:53.847Z,60.38
2019-03-15T20:51:03.365Z,60.43
2019-03-15T20:53:31.801Z,60.22
2019-03-15T20:56:00.207Z,60.06
2019-03-15T20:58:28.619Z,59.97
2019-03-15T21:00:57.119Z,59.49
2019-03-15T21:03:25.551Z,59.26
2019-03-15T21:06:13.293Z,59.27
2019-03-15T21:08:41.695Z,58.95
2019-03-15T21:11:13.091Z,59.10
2019-03-15T21:16:18.090Z,58.96
2019-03-15T21:21:19.265Z,58.75
2019-03-15T21:27:02.595Z,58.87
2019-03-15T21:32:05.411Z,59.17
2019-03-15T21:34:33.843Z,59.26
2019-03-15T21:37:02.235Z,59.12
2019-03-15T21:39:30.637Z,58.96
2019-03-15T21:41:59.182Z,58.59
2019-03-15T21:44:27.555Z,58.73
2019-03-15T21:46:55.953Z,58.47
2019-03-15T21:51:57.841Z,58.51
2019-03-15T21:54:26.262Z,58.64
2019-03-15T21:59:28.377Z,58.95
2019-03-15T22:01:56.784Z,59.30
2019-03-15T22:04:25.223Z,59.91
2019-03-15T22:06:53.615Z,60.49
2019-03-15T22:09:22.016Z,60.94
2019-03-15T22:11:50.455Z,61.25
2019-03-15T22:14:18.869Z,61.60
2019-03-15T22:16:47.265Z,61.95
2019-03-15T22:19:15.692Z,62.31
2019-03-15T22:21:44.097Z,62.60
2019-03-15T22:24:12.494Z,62.93
2019-03-15T22:26:40.925Z,63.15
2019-03-15T22:29:09.326Z,63.19
2019-03-15T22:31:49.522Z,63.34
2019-03-15T22:34:07.865Z,63.71
2019-03-15T22:36:36.267Z,64.16
2019-03-15T22:39:44.629Z,64.29
2019-03-15T22:42:13.026Z,64.51
2019-03-15T22:44:41.426Z,64.78
2019-03-15T22:49:43.435Z,64.97
2019-03-15T22:54:59.290Z,64.92
2019-03-15T22:57:27.685Z,64.84
2019-03-15T22:59:56.092Z,64.84
2019-03-15T23:02:24.549Z,64.80
2019-03-15T23:04:52.956Z,64.77
2019-03-15T23:07:21.345Z,64.93
2019-03-15T23:09:49.769Z,64.91
2019-03-15T23:12:18.179Z,65.21
2019-03-15T23:14:46.575Z,65.26
2019-03-15T23:17:15.004Z,65.34
2019-03-15T23:19:43.389Z,65.61
2019-03-15T23:22:11.793Z,65.50
2019-03-15T23:24:40.213Z,65.36
2019-03-15T23:27:08.664Z,65.46
2019-03-15T23:29:56.438Z,65.40
2019-03-15T23:32:24.831Z,65.41
2019-03-15T23:34:53.267Z,65.39
2019-03-15T23:39:55.991Z,65.33
2019-03-15T23:44:58.196Z,65.42
2019-03-15T23:47:26.601Z,65.59
2019-03-15T23:49:55.030Z,65.84
2019-03-15T23:52:23.425Z,65.79
2019-03-15T23:54:51.819Z,65.75
2019-03-15T23:57:20.245Z,65.67
2019-03-15T23:59:48.641Z,65.59
